sensor_id;sensor_type;location;lat;lon;timestamp;pressure;altitude;pressure_sealevel;temperature;humidity
20115;BME280;10218;42.874;25.320;2023-09-08T00:00:49;97700.88;;;17.09;100.00
20115;BME280;10218;42.874;25.320;2023-09-08T00:03:17;97696.03;;;16.91;100.00
20115;BME280;10218;42.874;25.320;2023-09-08T00:05:44;97704.09;;;16.85;100.00
20115;BME280;10218;42.874;25.320;2023-09-08T00:08:11;97706.91;;;16.77;100.00
20115;BME280;10218;42.874;25.320;2023-09-08T00:10:38;97710.50;;;16.84;100.00
20115;BME280;10218;42.874;25.320;2023-09-08T00:13:05;97707.09;;;16.68;100.00
20115;BME280;10218;42.874;25.320;2023-09-08T00:15:36;97704.19;;;16.70;100.00
20115;BME280;10218;42.874;25.320;2023-09-08T00:18:03;97714.09;;;16.63;100.00
20115;BME280;10218;42.874;25.320;2023-09-08T00:20:30;97710.44;;;16.77;100.00
20115;BME280;10218;42.874;25.320;2023-09-08T00:22:57;97715.59;;;16.72;100.00
20115;BME280;10218;42.874;25.320;2023-09-08T00:25:25;97714.41;;;16.75;100.00
20115;BME280;10218;42.874;25.320;2023-09-08T00:27:52;97716.31;;;16.87;100.00
20115;BME280;10218;42.874;25.320;2023-09-08T00:30:19;97710.94;;;16.87;100.00
20115;BME280;10218;42.874;25.320;2023-09-08T00:32:46;97713.97;;;17.05;100.00
20115;BME280;10218;42.874;25.320;2023-09-08T00:35:13;97708.28;;;16.94;100.00
20115;BME280;10218;42.874;25.320;2023-09-08T00:37:40;97709.41;;;17.12;100.00
20115;BME280;10218;42.874;25.320;2023-09-08T00:40:08;97708.28;;;16.94;100.00
20115;BME280;10218;42.874;25.320;2023-09-08T00:42:37;97709.78;;;17.03;100.00
20115;BME280;10218;42.874;25.320;2023-09-08T00:45:05;97712.25;;;16.63;100.00
20115;BME280;10218;42.874;25.320;2023-09-08T00:47:33;97717.50;;;16.50;100.00
20115;BME280;10218;42.874;25.320;2023-09-08T00:50:03;97723.09;;;16.49;100.00
20115;BME280;10218;42.874;25.320;2023-09-08T00:52:31;97710.28;;;16.57;100.00
20115;BME280;10218;42.874;25.320;2023-09-08T00:54:59;97715.19;;;16.68;100.00
20115;BME280;10218;42.874;25.320;2023-09-08T00:57:26;97725.22;;;16.81;100.00
20115;BME280;10218;42.874;25.320;2023-09-08T00:59:54;97726.69;;;16.84;100.00
20115;BME280;10218;42.874;25.320;2023-09-08T01:02:21;97721.47;;;16.76;100.00
20115;BME280;10218;42.874;25.320;2023-09-08T01:04:49;97711.00;;;16.66;100.00
20115;BME280;10218;42.874;25.320;2023-09-08T01:07:17;97723.31;;;16.75;100.00
20115;BME280;10218;42.874;25.320;2023-09-08T01:09:46;97720.16;;;16.72;100.00
20115;BME280;10218;42.874;25.320;2023-09-08T01:12:15;97717.09;;;16.75;100.00
20115;BME280;10218;42.874;25.320;2023-09-08T01:14:42;97726.75;;;16.62;100.00
20115;BME280;10218;42.874;25.320;2023-09-08T01:17:09;97721.47;;;16.54;100.00
20115;BME280;10218;42.874;25.320;2023-09-08T01:19:39;97733.75;;;16.36;100.00
20115;BME280;10218;42.874;25.320;2023-09-08T01:22:23;97734.41;;;16.16;100.00
20115;BME280;10218;42.874;25.320;2023-09-08T01:27:42;97738.03;;;16.02;100.00
20115;BME280;10218;42.874;25.320;2023-09-08T01:30:10;97730.75;;;15.81;100.00
20115;BME280;10218;42.874;25.320;2023-09-08T01:32:40;97734.72;;;15.86;100.00
20115;BME280;10218;42.874;25.320;2023-09-08T01:35:07;97727.81;;;15.76;100.00
20115;BME280;10218;42.874;25.320;2023-09-08T01:37:39;97723.59;;;15.89;100.00
20115;BME280;10218;42.874;25.320;2023-09-08T01:40:08;97719.66;;;15.91;100.00
20115;BME280;10218;42.874;25.320;2023-09-08T01:42:38;97716.94;;;15.70;100.00
20115;BME280;10218;42.874;25.320;2023-09-08T01:45:06;97712.91;;;16.23;100.00
20115;BME280;10218;42.874;25.320;2023-09-08T01:47:34;97725.72;;;15.93;100.00
20115;BME280;10218;42.874;25.320;2023-09-08T01:50:02;97712.50;;;15.98;100.00
20115;BME280;10218;42.874;25.320;2023-09-08T01:52:29;97722.03;;;16.01;100.00
20115;BME280;10218;42.874;25.320;2023-09-08T01:54:56;97711.19;;;16.15;100.00
20115;BME280;10218;42.874;25.320;2023-09-08T01:57:23;97704.97;;;16.64;100.00
20115;BME280;10218;42.874;25.320;2023-09-08T01:59:50;97712.00;;;16.58;100.00
20115;BME280;10218;42.874;25.320;2023-09-08T02:02:17;97693.13;;;16.37;100.00
20115;BME280;10218;42.874;25.320;2023-09-08T02:04:44;97713.16;;;16.56;100.00
20115;BME280;10218;42.874;25.320;2023-09-08T02:07:11;97719.72;;;16.40;100.00
20115;BME280;10218;42.874;25.320;2023-09-08T02:09:38;97719.59;;;16.27;100.00
20115;BME280;10218;42.874;25.320;2023-09-08T02:12:06;97707.94;;;16.20;100.00
20115;BME280;10218;42.874;25.320;2023-09-08T02:14:33;97713.66;;;16.38;100.00
20115;BME280;10218;42.874;25.320;2023-09-08T02:17:00;97718.97;;;16.25;100.00
20115;BME280;10218;42.874;25.320;2023-09-08T02:19:27;97707.78;;;15.86;100.00
20115;BME280;10218;42.874;25.320;2023-09-08T02:21:55;97708.44;;;16.09;100.00
20115;BME280;10218;42.874;25.320;2023-09-08T02:24:21;97717.47;;;16.22;100.00
20115;BME280;10218;42.874;25.320;2023-09-08T02:26:49;97713.00;;;16.08;100.00
20115;BME280;10218;42.874;25.320;2023-09-08T02:29:16;97716.53;;;15.88;100.00
20115;BME280;10218;42.874;25.320;2023-09-08T02:31:44;97716.22;;;15.97;100.00
20115;BME280;10218;42.874;25.320;2023-09-08T02:34:12;97721.66;;;15.82;100.00
20115;BME280;10218;42.874;25.320;2023-09-08T02:36:40;97718.47;;;15.94;100.00
20115;BME280;10218;42.874;25.320;2023-09-08T02:39:07;97712.88;;;15.74;100.00
20115;BME280;10218;42.874;25.320;2023-09-08T02:41:34;97707.59;;;15.87;100.00
20115;BME280;10218;42.874;25.320;2023-09-08T02:44:02;97718.69;;;15.77;100.00
20115;BME280;10218;42.874;25.320;2023-09-08T02:46:29;97715.81;;;15.79;100.00
20115;BME280;10218;42.874;25.320;2023-09-08T02:48:56;97718.97;;;15.32;100.00
20115;BME280;10218;42.874;25.320;2023-09-08T02:51:23;97716.56;;;15.37;100.00
20115;BME280;10218;42.874;25.320;2023-09-08T02:53:50;97709.50;;;15.36;100.00
20115;BME280;10218;42.874;25.320;2023-09-08T02:56:18;97704.84;;;15.30;100.00
20115;BME280;10218;42.874;25.320;2023-09-08T02:58:45;97698.59;;;15.44;100.00
20115;BME280;10218;42.874;25.320;2023-09-08T03:01:14;97695.75;;;15.31;100.00
20115;BME280;10218;42.874;25.320;2023-09-08T03:03:42;97696.50;;;15.25;100.00
20115;BME280;10218;42.874;25.320;2023-09-08T03:06:10;97699.31;;;15.17;100.00
20115;BME280;10218;42.874;25.320;2023-09-08T03:08:38;97697.72;;;15.37;100.00
20115;BME280;10218;42.874;25.320;2023-09-08T03:11:05;97696.06;;;15.21;100.00
20115;BME280;10218;42.874;25.320;2023-09-08T03:13:32;97700.66;;;15.42;100.00
20115;BME280;10218;42.874;25.320;2023-09-08T03:16:04;97691.75;;;15.41;100.00
20115;BME280;10218;42.874;25.320;2023-09-08T03:18:33;97697.59;;;15.45;100.00
20115;BME280;10218;42.874;25.320;2023-09-08T03:21:00;97701.22;;;15.52;100.00
20115;BME280;10218;42.874;25.320;2023-09-08T03:23:30;97706.94;;;15.49;100.00
20115;BME280;10218;42.874;25.320;2023-09-08T03:25:57;97703.81;;;15.46;100.00
20115;BME280;10218;42.874;25.320;2023-09-08T03:28:24;97701.16;;;15.31;100.00
20115;BME280;10218;42.874;25.320;2023-09-08T03:30:52;97704.72;;;15.17;100.00
20115;BME280;10218;42.874;25.320;2023-09-08T03:33:20;97700.22;;;15.24;100.00
20115;BME280;10218;42.874;25.320;2023-09-08T03:35:47;97705.50;;;15.32;100.00
20115;BME280;10218;42.874;25.320;2023-09-08T03:38:14;97694.38;;;15.20;100.00
20115;BME280;10218;42.874;25.320;2023-09-08T03:40:41;97698.03;;;15.13;100.00
20115;BME280;10218;42.874;25.320;2023-09-08T03:43:09;97699.13;;;15.04;100.00
20115;BME280;10218;42.874;25.320;2023-09-08T03:45:36;97710.25;;;15.30;100.00
20115;BME280;10218;42.874;25.320;2023-09-08T03:48:07;97705.59;;;15.24;100.00
20115;BME280;10218;42.874;25.320;2023-09-08T03:50:34;97713.06;;;15.22;100.00
20115;BME280;10218;42.874;25.320;2023-09-08T03:53:02;97703.19;;;15.29;100.00
20115;BME280;10218;42.874;25.320;2023-09-08T03:55:32;97709.84;;;15.48;100.00
20115;BME280;10218;42.874;25.320;2023-09-08T03:57:59;97691.84;;;15.48;100.00
20115;BME280;10218;42.874;25.320;2023-09-08T04:00:26;97709.75;;;15.41;100.00
20115;BME280;10218;42.874;25.320;2023-09-08T04:02:54;97696.12;;;15.43;100.00
20115;BME280;10218;42.874;25.320;2023-09-08T04:05:21;97716.38;;;15.53;100.00
20115;BME280;10218;42.874;25.320;2023-09-08T04:07:48;97713.38;;;15.63;100.00
20115;BME280;10218;42.874;25.320;2023-09-08T04:10:16;97703.53;;;15.55;100.00
20115;BME280;10218;42.874;25.320;2023-09-08T04:12:43;97715.19;;;15.26;100.00
20115;BME280;10218;42.874;25.320;2023-09-08T04:15:11;97704.31;;;15.20;100.00
20115;BME280;10218;42.874;25.320;2023-09-08T04:17:38;97701.56;;;15.13;100.00
20115;BME280;10218;42.874;25.320;2023-09-08T04:20:06;97711.38;;;15.21;100.00
20115;BME280;10218;42.874;25.320;2023-09-08T04:22:34;97709.53;;;15.21;100.00
20115;BME280;10218;42.874;25.320;2023-09-08T04:25:02;97710.38;;;15.22;100.00
20115;BME280;10218;42.874;25.320;2023-09-08T04:27:29;97720.72;;;15.39;100.00
20115;BME280;10218;42.874;25.320;2023-09-08T04:29:56;97713.78;;;15.30;100.00
20115;BME280;10218;42.874;25.320;2023-09-08T04:32:24;97705.50;;;15.32;100.00
20115;BME280;10218;42.874;25.320;2023-09-08T04:34:50;97726.31;;;15.38;100.00
20115;BME280;10218;42.874;25.320;2023-09-08T04:37:18;97733.03;;;15.13;100.00
20115;BME280;10218;42.874;25.320;2023-09-08T04:39:45;97737.19;;;15.15;100.00
20115;BME280;10218;42.874;25.320;2023-09-08T04:42:12;97735.41;;;15.37;100.00
20115;BME280;10218;42.874;25.320;2023-09-08T04:44:39;97734.34;;;15.67;100.00
20115;BME280;10218;42.874;25.320;2023-09-08T04:47:07;97733.59;;;15.73;100.00
20115;BME280;10218;42.874;25.320;2023-09-08T04:49:34;97738.97;;;15.73;100.00
20115;BME280;10218;42.874;25.320;2023-09-08T04:52:01;97743.22;;;15.82;100.00
20115;BME280;10218;42.874;25.320;2023-09-08T04:54:29;97721.41;;;15.99;100.00
20115;BME280;10218;42.874;25.320;2023-09-08T04:56:56;97732.03;;;16.28;100.00
20115;BME280;10218;42.874;25.320;2023-09-08T04:59:30;97729.16;;;16.57;100.00
20115;BME280;10218;42.874;25.320;2023-09-08T05:01:58;97730.69;;;16.60;100.00
20115;BME280;10218;42.874;25.320;2023-09-08T05:04:25;97741.06;;;16.42;100.00
20115;BME280;10218;42.874;25.320;2023-09-08T05:06:52;97728.59;;;16.34;100.00
20115;BME280;10218;42.874;25.320;2023-09-08T05:09:20;97736.91;;;16.39;100.00
20115;BME280;10218;42.874;25.320;2023-09-08T05:11:47;97734.91;;;16.48;100.00
20115;BME280;10218;42.874;25.320;2023-09-08T05:14:14;97740.88;;;16.43;100.00
20115;BME280;10218;42.874;25.320;2023-09-08T05:16:41;97743.66;;;16.50;100.00
20115;BME280;10218;42.874;25.320;2023-09-08T05:19:23;97729.94;;;16.73;100.00
20115;BME280;10218;42.874;25.320;2023-09-08T05:21:53;97727.50;;;16.56;100.00
20115;BME280;10218;42.874;25.320;2023-09-08T05:24:21;97731.19;;;16.77;100.00
20115;BME280;10218;42.874;25.320;2023-09-08T05:26:48;97728.31;;;16.78;100.00
20115;BME280;10218;42.874;25.320;2023-09-08T05:29:15;97730.75;;;17.01;100.00
20115;BME280;10218;42.874;25.320;2023-09-08T05:31:43;97720.94;;;16.93;100.00
20115;BME280;10218;42.874;25.320;2023-09-08T05:34:11;97727.69;;;17.10;100.00
20115;BME280;10218;42.874;25.320;2023-09-08T05:36:38;97724.84;;;17.25;100.00
20115;BME280;10218;42.874;25.320;2023-09-08T05:39:07;97721.63;;;17.49;100.00
20115;BME280;10218;42.874;25.320;2023-09-08T05:41:34;97740.66;;;17.28;100.00
20115;BME280;10218;42.874;25.320;2023-09-08T05:44:02;97739.91;;;17.47;100.00
20115;BME280;10218;42.874;25.320;2023-09-08T05:46:29;97731.38;;;17.44;100.00
20115;BME280;10218;42.874;25.320;2023-09-08T05:48:56;97734.63;;;17.74;100.00
20115;BME280;10218;42.874;25.320;2023-09-08T05:51:24;97735.00;;;17.64;100.00
20115;BME280;10218;42.874;25.320;2023-09-08T05:53:52;97739.03;;;17.81;100.00
20115;BME280;10218;42.874;25.320;2023-09-08T05:56:19;97726.78;;;17.99;100.00
20115;BME280;10218;42.874;25.320;2023-09-08T05:58:46;97739.75;;;18.36;100.00
20115;BME280;10218;42.874;25.320;2023-09-08T06:01:15;97736.41;;;18.27;100.00
20115;BME280;10218;42.874;25.320;2023-09-08T06:03:42;97733.28;;;18.50;100.00
20115;BME280;10218;42.874;25.320;2023-09-08T06:06:10;97743.09;;;18.84;100.00
20115;BME280;10218;42.874;25.320;2023-09-08T06:08:37;97738.13;;;18.68;100.00
20115;BME280;10218;42.874;25.320;2023-09-08T06:11:04;97733.47;;;19.14;100.00
20115;BME280;10218;42.874;25.320;2023-09-08T06:13:32;97736.78;;;19.16;100.00
20115;BME280;10218;42.874;25.320;2023-09-08T06:15:59;97734.72;;;19.05;100.00
20115;BME280;10218;42.874;25.320;2023-09-08T06:18:28;97730.63;;;19.60;100.00
20115;BME280;10218;42.874;25.320;2023-09-08T06:20:57;97737.84;;;19.73;100.00
20115;BME280;10218;42.874;25.320;2023-09-08T06:23:24;97741.38;;;20.12;100.00
20115;BME280;10218;42.874;25.320;2023-09-08T06:25:56;97736.81;;;19.74;100.00
20115;BME280;10218;42.874;25.320;2023-09-08T06:28:29;97743.00;;;20.19;100.00
20115;BME280;10218;42.874;25.320;2023-09-08T06:30:57;97735.56;;;20.46;100.00
20115;BME280;10218;42.874;25.320;2023-09-08T06:33:24;97741.91;;;20.27;100.00
20115;BME280;10218;42.874;25.320;2023-09-08T06:35:51;97737.84;;;20.42;100.00
20115;BME280;10218;42.874;25.320;2023-09-08T06:38:21;97742.19;;;20.75;100.00
20115;BME280;10218;42.874;25.320;2023-09-08T06:40:48;97736.19;;;20.91;100.00
20115;BME280;10218;42.874;25.320;2023-09-08T06:43:16;97740.09;;;21.20;100.00
20115;BME280;10218;42.874;25.320;2023-09-08T06:45:47;97739.06;;;21.21;100.00
20115;BME280;10218;42.874;25.320;2023-09-08T06:48:16;97743.47;;;21.88;100.00
20115;BME280;10218;42.874;25.320;2023-09-08T06:50:43;97744.47;;;21.75;100.00
20115;BME280;10218;42.874;25.320;2023-09-08T06:53:10;97745.53;;;21.74;100.00
20115;BME280;10218;42.874;25.320;2023-09-08T06:55:40;97745.47;;;22.11;100.00
20115;BME280;10218;42.874;25.320;2023-09-08T06:58:09;97745.22;;;22.42;100.00
20115;BME280;10218;42.874;25.320;2023-09-08T07:00:36;97745.31;;;22.24;100.00
20115;BME280;10218;42.874;25.320;2023-09-08T07:03:04;97743.91;;;22.75;100.00
20115;BME280;10218;42.874;25.320;2023-09-08T07:05:32;97742.28;;;22.44;100.00
20115;BME280;10218;42.874;25.320;2023-09-08T07:08:00;97746.28;;;22.94;100.00
20115;BME280;10218;42.874;25.320;2023-09-08T07:10:27;97748.88;;;22.78;100.00
20115;BME280;10218;42.874;25.320;2023-09-08T07:12:54;97744.37;;;23.18;100.00
20115;BME280;10218;42.874;25.320;2023-09-08T07:15:21;97755.03;;;23.43;100.00
20115;BME280;10218;42.874;25.320;2023-09-08T07:17:48;97764.84;;;23.67;100.00
20115;BME280;10218;42.874;25.320;2023-09-08T07:20:16;97760.00;;;23.58;100.00
20115;BME280;10218;42.874;25.320;2023-09-08T07:22:44;97761.88;;;23.69;100.00
20115;BME280;10218;42.874;25.320;2023-09-08T07:25:11;97753.88;;;23.51;100.00
20115;BME280;10218;42.874;25.320;2023-09-08T07:27:39;97760.63;;;23.48;100.00
20115;BME280;10218;42.874;25.320;2023-09-08T07:30:06;97752.91;;;23.33;100.00
20115;BME280;10218;42.874;25.320;2023-09-08T07:32:34;97743.66;;;23.23;100.00
20115;BME280;10218;42.874;25.320;2023-09-08T07:35:01;97761.97;;;23.85;100.00
20115;BME280;10218;42.874;25.320;2023-09-08T07:37:28;97751.25;;;23.56;100.00
20115;BME280;10218;42.874;25.320;2023-09-08T07:39:56;97753.75;;;24.25;100.00
20115;BME280;10218;42.874;25.320;2023-09-08T07:42:23;97757.97;;;24.05;100.00
20115;BME280;10218;42.874;25.320;2023-09-08T07:44:53;97766.09;;;24.73;100.00
20115;BME280;10218;42.874;25.320;2023-09-08T07:47:20;97760.72;;;25.50;100.00
20115;BME280;10218;42.874;25.320;2023-09-08T07:49:47;97756.16;;;25.55;100.00
20115;BME280;10218;42.874;25.320;2023-09-08T07:52:15;97755.69;;;25.42;100.00
20115;BME280;10218;42.874;25.320;2023-09-08T07:54:42;97756.72;;;25.74;95.20
20115;BME280;10218;42.874;25.320;2023-09-08T07:57:09;97748.78;;;24.67;100.00
20115;BME280;10218;42.874;25.320;2023-09-08T07:59:36;97756.06;;;25.67;100.00
20115;BME280;10218;42.874;25.320;2023-09-08T08:02:03;97757.84;;;24.40;100.00
20115;BME280;10218;42.874;25.320;2023-09-08T08:04:31;97755.81;;;25.69;100.00
20115;BME280;10218;42.874;25.320;2023-09-08T08:06:58;97742.19;;;25.74;100.00
20115;BME280;10218;42.874;25.320;2023-09-08T08:09:25;97745.31;;;26.26;100.00
20115;BME280;10218;42.874;25.320;2023-09-08T08:11:52;97739.28;;;26.88;91.84
20115;BME280;10218;42.874;25.320;2023-09-08T08:14:19;97745.63;;;27.30;89.46
20115;BME280;10218;42.874;25.320;2023-09-08T08:16:46;97743.81;;;26.18;96.35
20115;BME280;10218;42.874;25.320;2023-09-08T08:19:14;97741.84;;;25.70;96.44
20115;BME280;10218;42.874;25.320;2023-09-08T08:21:41;97741.31;;;26.17;85.93
20115;BME280;10218;42.874;25.320;2023-09-08T08:24:08;97728.28;;;26.24;99.59
20115;BME280;10218;42.874;25.320;2023-09-08T08:26:36;97728.13;;;26.94;95.70
20115;BME280;10218;42.874;25.320;2023-09-08T08:29:03;97735.16;;;26.85;96.86
20115;BME280;10218;42.874;25.320;2023-09-08T08:31:30;97720.69;;;27.32;86.86
20115;BME280;10218;42.874;25.320;2023-09-08T08:33:57;97724.22;;;27.27;91.30
20115;BME280;10218;42.874;25.320;2023-09-08T08:36:24;97725.34;;;27.31;83.22
20115;BME280;10218;42.874;25.320;2023-09-08T08:38:51;97723.47;;;27.94;85.65
20115;BME280;10218;42.874;25.320;2023-09-08T08:41:19;97725.84;;;26.27;95.77
20115;BME280;10218;42.874;25.320;2023-09-08T08:43:47;97727.47;;;28.43;79.65
20115;BME280;10218;42.874;25.320;2023-09-08T08:46:16;97715.91;;;28.26;84.68
20115;BME280;10218;42.874;25.320;2023-09-08T08:48:45;97720.75;;;26.68;83.34
20115;BME280;10218;42.874;25.320;2023-09-08T08:51:13;97710.97;;;27.56;91.84
20115;BME280;10218;42.874;25.320;2023-09-08T08:53:41;97709.97;;;27.82;83.00
20115;BME280;10218;42.874;25.320;2023-09-08T08:56:10;97718.19;;;28.75;71.28
20115;BME280;10218;42.874;25.320;2023-09-08T08:58:39;97714.22;;;29.47;66.42
20115;BME280;10218;42.874;25.320;2023-09-08T09:01:07;97713.19;;;29.02;60.33
20115;BME280;10218;42.874;25.320;2023-09-08T09:03:36;97712.38;;;28.86;61.82
20115;BME280;10218;42.874;25.320;2023-09-08T09:06:04;97722.53;;;29.16;71.64
20115;BME280;10218;42.874;25.320;2023-09-08T09:08:36;97712.06;;;29.28;58.55
20115;BME280;10218;42.874;25.320;2023-09-08T09:11:04;97702.75;;;28.99;66.39
20115;BME280;10218;42.874;25.320;2023-09-08T09:13:31;97709.63;;;29.02;61.76
20115;BME280;10218;42.874;25.320;2023-09-08T09:15:59;97714.06;;;29.97;57.06
20115;BME280;10218;42.874;25.320;2023-09-08T09:18:27;97712.34;;;30.11;56.57
20115;BME280;10218;42.874;25.320;2023-09-08T09:20:58;97707.31;;;30.18;53.71
20115;BME280;10218;42.874;25.320;2023-09-08T09:23:34;97721.25;;;30.47;51.47
20115;BME280;10218;42.874;25.320;2023-09-08T09:26:03;97713.13;;;29.53;55.23
20115;BME280;10218;42.874;25.320;2023-09-08T09:28:33;97709.81;;;29.61;58.94
20115;BME280;10218;42.874;25.320;2023-09-08T09:31:00;97707.13;;;30.05;57.75
20115;BME280;10218;42.874;25.320;2023-09-08T09:33:28;97701.56;;;30.59;60.50
20115;BME280;10218;42.874;25.320;2023-09-08T09:35:59;97711.53;;;28.61;58.23
20115;BME280;10218;42.874;25.320;2023-09-08T09:38:27;97707.91;;;30.15;53.43
20115;BME280;10218;42.874;25.320;2023-09-08T09:40:55;97711.47;;;30.94;51.29
20115;BME280;10218;42.874;25.320;2023-09-08T09:43:23;97700.47;;;30.89;48.58
20115;BME280;10218;42.874;25.320;2023-09-08T09:45:50;97689.50;;;29.31;55.05
20115;BME280;10218;42.874;25.320;2023-09-08T09:48:20;97700.84;;;29.94;54.75
20115;BME280;10218;42.874;25.320;2023-09-08T09:50:47;97707.81;;;31.09;48.88
20115;BME280;10218;42.874;25.320;2023-09-08T09:53:16;97700.69;;;30.97;50.32
20115;BME280;10218;42.874;25.320;2023-09-08T09:55:45;97704.72;;;30.81;47.19
20115;BME280;10218;42.874;25.320;2023-09-08T09:58:12;97698.56;;;30.11;51.63
20115;BME280;10218;42.874;25.320;2023-09-08T10:00:41;97708.41;;;30.23;49.44
20115;BME280;10218;42.874;25.320;2023-09-08T10:03:09;97696.16;;;29.10;57.87
20115;BME280;10218;42.874;25.320;2023-09-08T10:05:37;97695.22;;;29.55;53.03
20115;BME280;10218;42.874;25.320;2023-09-08T10:08:04;97691.50;;;29.85;50.13
20115;BME280;10218;42.874;25.320;2023-09-08T10:10:32;97699.41;;;28.31;55.95
20115;BME280;10218;42.874;25.320;2023-09-08T10:13:06;97695.59;;;28.63;55.75
20115;BME280;10218;42.874;25.320;2023-09-08T10:15:34;97682.94;;;30.02;54.35
20115;BME280;10218;42.874;25.320;2023-09-08T10:18:05;97688.47;;;28.77;62.20
20115;BME280;10218;42.874;25.320;2023-09-08T10:20:33;97685.09;;;27.47;65.65
20115;BME280;10218;42.874;25.320;2023-09-08T10:23:09;97680.84;;;27.24;69.80
20115;BME280;10218;42.874;25.320;2023-09-08T10:25:42;97677.94;;;29.29;64.18
20115;BME280;10218;42.874;25.320;2023-09-08T10:28:13;97667.38;;;30.60;52.54
20115;BME280;10218;42.874;25.320;2023-09-08T10:30:40;97679.59;;;30.83;50.81
20115;BME280;10218;42.874;25.320;2023-09-08T10:33:08;97680.06;;;31.48;44.48
20115;BME280;10218;42.874;25.320;2023-09-08T10:35:37;97685.91;;;31.89;48.80
20115;BME280;10218;42.874;25.320;2023-09-08T10:38:24;97677.41;;;31.61;45.75
20115;BME280;10218;42.874;25.320;2023-09-08T10:46:27;97677.09;;;32.29;41.30
20115;BME280;10218;42.874;25.320;2023-09-08T10:48:55;97681.78;;;32.66;42.39
20115;BME280;10218;42.874;25.320;2023-09-08T10:51:28;97675.09;;;31.21;43.24
20115;BME280;10218;42.874;25.320;2023-09-08T10:53:55;97666.56;;;30.15;50.77
20115;BME280;10218;42.874;25.320;2023-09-08T10:56:27;97667.88;;;29.74;47.80
20115;BME280;10218;42.874;25.320;2023-09-08T10:58:54;97666.03;;;30.13;46.65
20115;BME280;10218;42.874;25.320;2023-09-08T11:01:21;97668.84;;;31.39;49.72
20115;BME280;10218;42.874;25.320;2023-09-08T11:03:53;97654.97;;;31.68;45.47
20115;BME280;10218;42.874;25.320;2023-09-08T11:06:21;97644.34;;;31.75;42.99
20115;BME280;10218;42.874;25.320;2023-09-08T11:08:49;97648.97;;;30.79;48.21
20115;BME280;10218;42.874;25.320;2023-09-08T11:11:19;97645.03;;;30.90;46.65
20115;BME280;10218;42.874;25.320;2023-09-08T11:13:47;97647.88;;;31.80;45.35
20115;BME280;10218;42.874;25.320;2023-09-08T11:16:15;97646.47;;;32.02;44.63
20115;BME280;10218;42.874;25.320;2023-09-08T11:18:43;97633.31;;;31.04;44.00
20115;BME280;10218;42.874;25.320;2023-09-08T11:21:10;97637.53;;;32.10;44.51
20115;BME280;10218;42.874;25.320;2023-09-08T11:23:38;97637.13;;;32.73;44.59
20115;BME280;10218;42.874;25.320;2023-09-08T11:26:06;97636.56;;;32.38;44.39
20115;BME280;10218;42.874;25.320;2023-09-08T11:28:36;97629.31;;;33.48;43.18
20115;BME280;10218;42.874;25.320;2023-09-08T11:31:04;97628.59;;;31.75;41.48
20115;BME280;10218;42.874;25.320;2023-09-08T11:33:34;97631.66;;;32.67;44.11
20115;BME280;10218;42.874;25.320;2023-09-08T11:36:02;97646.44;;;32.44;38.89
20115;BME280;10218;42.874;25.320;2023-09-08T11:38:29;97628.81;;;31.60;41.35
20115;BME280;10218;42.874;25.320;2023-09-08T11:40:58;97611.41;;;32.53;39.94
20115;BME280;10218;42.874;25.320;2023-09-08T11:43:26;97610.06;;;31.10;42.02
20115;BME280;10218;42.874;25.320;2023-09-08T11:45:55;97627.91;;;31.65;46.35
20115;BME280;10218;42.874;25.320;2023-09-08T11:48:24;97627.25;;;32.66;40.29
20115;BME280;10218;42.874;25.320;2023-09-08T11:50:55;97622.28;;;33.42;39.21
20115;BME280;10218;42.874;25.320;2023-09-08T11:53:22;97616.91;;;33.59;39.59
20115;BME280;10218;42.874;25.320;2023-09-08T11:55:50;97612.72;;;34.11;40.75
20115;BME280;10218;42.874;25.320;2023-09-08T11:58:18;97595.34;;;30.90;44.72
20115;BME280;10218;42.874;25.320;2023-09-08T12:00:46;97603.88;;;29.87;50.85
20115;BME280;10218;42.874;25.320;2023-09-08T12:03:17;97600.63;;;31.82;47.14
20115;BME280;10218;42.874;25.320;2023-09-08T12:05:50;97602.34;;;32.66;43.98
20115;BME280;10218;42.874;25.320;2023-09-08T12:08:18;97596.28;;;31.10;46.05
20115;BME280;10218;42.874;25.320;2023-09-08T12:10:45;97597.84;;;29.85;52.17
20115;BME280;10218;42.874;25.320;2023-09-08T12:13:12;97587.44;;;30.21;52.11
20115;BME280;10218;42.874;25.320;2023-09-08T12:15:42;97581.34;;;31.34;51.51
20115;BME280;10218;42.874;25.320;2023-09-08T12:18:12;97595.56;;;31.47;48.73
20115;BME280;10218;42.874;25.320;2023-09-08T12:20:43;97594.34;;;32.33;47.33
20115;BME280;10218;42.874;25.320;2023-09-08T12:25:49;97584.16;;;29.75;56.90
20115;BME280;10218;42.874;25.320;2023-09-08T12:28:21;97571.88;;;28.58;59.35
20115;BME280;10218;42.874;25.320;2023-09-08T12:30:51;97574.03;;;28.91;58.77
20115;BME280;10218;42.874;25.320;2023-09-08T12:33:19;97570.37;;;31.72;49.08
20115;BME280;10218;42.874;25.320;2023-09-08T12:35:48;97568.06;;;31.79;45.50
20115;BME280;10218;42.874;25.320;2023-09-08T12:38:18;97565.12;;;31.70;48.14
20115;BME280;10218;42.874;25.320;2023-09-08T12:40:46;97558.50;;;32.09;44.39
20115;BME280;10218;42.874;25.320;2023-09-08T12:43:13;97568.50;;;32.05;46.86
20115;BME280;10218;42.874;25.320;2023-09-08T12:45:40;97561.69;;;34.12;40.35
20115;BME280;10218;42.874;25.320;2023-09-08T12:48:07;97560.91;;;33.07;38.74
20115;BME280;10218;42.874;25.320;2023-09-08T12:50:34;97556.75;;;32.32;39.93
20115;BME280;10218;42.874;25.320;2023-09-08T12:53:01;97554.13;;;33.00;41.56
20115;BME280;10218;42.874;25.320;2023-09-08T12:55:28;97553.41;;;32.48;41.29
20115;BME280;10218;42.874;25.320;2023-09-08T12:57:56;97543.06;;;30.17;49.22